Time;durP1;ratioP1;P1;durP2;ratioP2;P2;SDS_P1;SDS_P2;PMS_P1;PMS_P2;Temp;Humidity;BMP_temperature;BMP_pressure;BME280_temperature;BME280_humidity;BME280_pressure;Samples;Min_cycle;Max_cycle;Signal;HPM_P1;HPM_P2
2021/11/16 00:01:08;;;;;;;60.90;21.33;;;4.00;99.90;;;;;;5103885;28;20516;-66
2021/11/16 00:03:34;;;;;;;93.97;42.05;;;3.90;99.90;;;;;;5089845;28;20048;-66
2021/11/16 00:06:00;;;;;;;65.88;24.92;;;3.90;99.90;;;;;;5083456;28;20041;-66
2021/11/16 00:08:26;;;;;;;69.40;22.77;;;3.90;99.90;;;;;;5082675;28;20614;-66
2021/11/16 00:10:52;;;;;;;68.65;20.90;;;3.90;99.90;;;;;;5092202;28;20801;-66
2021/11/16 00:13:19;;;;;;;71.75;21.08;;;3.90;99.90;;;;;;5095456;28;20036;-66
2021/11/16 00:15:46;;;;;;;66.85;21.27;;;3.70;99.90;;;;;;5084685;28;20473;-66
2021/11/16 00:18:12;;;;;;;48.28;18.98;;;3.70;99.90;;;;;;5074432;28;20134;-66
2021/11/16 00:20:44;;;;;;;71.57;22.92;;;3.70;99.90;;;;;;5069984;28;20044;-66
2021/11/16 00:23:17;;;;;;;76.32;22.55;;;3.70;99.90;;;;;;5083875;28;20040;-67
2021/11/16 00:25:47;;;;;;;136.02;24.08;;;3.80;99.90;;;;;;5092831;28;20094;-66
2021/11/16 00:28:13;;;;;;;109.00;24.10;;;3.80;99.90;;;;;;5081930;28;20111;-66
2021/11/16 00:30:40;;;;;;;70.65;21.42;;;3.70;99.90;;;;;;5090106;28;20645;-66
2021/11/16 00:33:07;;;;;;;86.00;22.42;;;3.70;99.90;;;;;;5090228;28;20640;-66
2021/11/16 00:35:37;;;;;;;115.20;22.55;;;3.70;99.90;;;;;;5085728;28;20036;-66
2021/11/16 00:38:04;;;;;;;109.25;22.60;;;3.70;99.90;;;;;;5069737;28;20052;-66
2021/11/16 00:40:30;;;;;;;82.00;21.45;;;3.70;99.90;;;;;;5078117;28;20048;-66
2021/11/16 00:42:55;;;;;;;78.72;22.80;;;3.70;99.90;;;;;;5069809;28;20040;-66
2021/11/16 00:45:21;;;;;;;61.20;22.02;;;3.70;99.90;;;;;;5069388;28;20405;-66
2021/11/16 00:47:47;;;;;;;111.07;25.88;;;3.80;99.90;;;;;;5071198;28;20120;-64
2021/11/16 00:50:15;;;;;;;57.70;21.38;;;3.80;99.90;;;;;;5090200;28;20043;-64
2021/11/16 00:52:43;;;;;;;73.47;22.75;;;3.80;99.90;;;;;;5089420;28;20040;-65
2021/11/16 00:55:09;;;;;;;171.60;26.45;;;3.90;99.90;;;;;;5090188;28;20516;-64
2021/11/16 00:57:35;;;;;;;95.45;21.33;;;3.80;99.90;;;;;;5089704;28;20040;-64
2021/11/16 01:00:01;;;;;;;145.40;25.40;;;3.70;99.90;;;;;;5089259;28;20036;-64
2021/11/16 01:02:26;;;;;;;139.18;23.83;;;3.70;99.90;;;;;;5083035;28;20036;-65
2021/11/16 01:04:52;;;;;;;101.45;23.30;;;3.60;99.90;;;;;;5069195;28;20050;-64
2021/11/16 01:07:19;;;;;;;165.32;25.42;;;3.60;99.90;;;;;;5068117;28;20128;-64
2021/11/16 01:09:45;;;;;;;243.88;29.27;;;3.60;99.90;;;;;;5077459;28;20062;-64
2021/11/16 01:12:13;;;;;;;79.72;21.95;;;3.60;99.90;;;;;;5071806;28;20032;-64
2021/11/16 01:14:40;;;;;;;87.55;22.88;;;3.70;99.90;;;;;;5069053;28;20459;-65
2021/11/16 01:17:06;;;;;;;115.93;22.02;;;3.70;99.90;;;;;;5068506;28;20116;-64
2021/11/16 01:19:32;;;;;;;170.00;24.42;;;3.80;99.90;;;;;;5070118;28;20048;-64
2021/11/16 01:21:58;;;;;;;71.82;21.20;;;3.70;99.90;;;;;;5069067;28;20045;-65
2021/11/16 01:24:24;;;;;;;185.88;25.25;;;3.70;99.90;;;;;;5069711;28;20032;-64
2021/11/16 01:26:50;;;;;;;185.43;25.80;;;3.70;99.90;;;;;;5069406;28;20040;-64
2021/11/16 01:29:19;;;;;;;253.80;30.58;;;3.60;99.90;;;;;;5073583;28;20039;-64
2021/11/16 01:31:45;;;;;;;76.38;22.25;;;3.50;99.90;;;;;;5068151;28;20041;-64
2021/11/16 01:34:11;;;;;;;133.32;22.88;;;3.50;99.90;;;;;;5068519;28;20041;-64
2021/11/16 01:36:37;;;;;;;64.07;20.23;;;3.40;99.90;;;;;;5068395;28;20142;-64
2021/11/16 01:39:04;;;;;;;76.55;22.70;;;3.40;99.90;;;;;;5075910;28;20040;-64
2021/11/16 01:41:32;;;;;;;153.70;24.88;;;3.50;99.90;;;;;;5069215;28;20440;-64
2021/11/16 01:44:00;;;;;;;115.47;21.30;;;3.50;99.90;;;;;;5068842;28;20037;-64
2021/11/16 01:46:25;;;;;;;57.97;20.13;;;3.50;99.90;;;;;;5067628;28;20045;-64
2021/11/16 01:48:54;;;;;;;80.32;20.63;;;3.50;99.90;;;;;;5067906;28;20381;-64
2021/11/16 01:51:22;;;;;;;53.80;18.70;;;3.50;99.90;;;;;;5068130;28;20045;-64
2021/11/16 01:53:51;;;;;;;55.53;19.83;;;3.50;99.90;;;;;;5068695;28;20031;-64
2021/11/16 01:56:17;;;;;;;48.75;18.73;;;3.60;99.90;;;;;;5068695;28;20093;-64
2021/11/16 01:58:43;;;;;;;81.10;20.08;;;3.70;99.90;;;;;;5068509;28;20048;-64
2021/11/16 02:01:09;;;;;;;44.30;16.90;;;3.70;99.90;;;;;;5067362;28;20555;-64
2021/11/16 02:03:35;;;;;;;72.10;17.65;;;3.70;99.90;;;;;;5082274;28;20442;-64
2021/11/16 02:06:27;;;;;;;49.63;17.85;;;3.70;99.90;;;;;;5080090;28;20040;-64
2021/11/16 02:08:55;;;;;;;82.13;18.55;;;3.80;99.90;;;;;;5071673;28;20122;-65
2021/11/16 02:11:22;;;;;;;64.63;20.13;;;3.70;99.90;;;;;;5072786;28;20400;-65
2021/11/16 02:13:49;;;;;;;63.60;20.55;;;3.70;99.90;;;;;;5068230;28;20040;-64
2021/11/16 02:16:14;;;;;;;63.13;19.20;;;3.70;99.90;;;;;;5066638;28;20040;-64
2021/11/16 02:18:42;;;;;;;54.63;18.05;;;3.60;99.90;;;;;;5070216;28;20071;-64
2021/11/16 02:21:09;;;;;;;70.55;19.58;;;3.70;99.90;;;;;;5067744;28;20036;-64
2021/11/16 02:23:35;;;;;;;63.97;20.55;;;3.70;99.90;;;;;;5068401;28;20067;-64
2021/11/16 02:26:01;;;;;;;142.93;20.50;;;3.70;99.90;;;;;;5067223;28;20044;-65
2021/11/16 02:28:27;;;;;;;110.10;21.27;;;3.70;99.90;;;;;;5075280;28;20039;-64
2021/11/16 02:30:54;;;;;;;99.97;21.00;;;3.60;99.90;;;;;;5078156;28;20067;-64
2021/11/16 02:33:20;;;;;;;55.05;19.55;;;3.60;99.90;;;;;;5085454;28;20128;-64
2021/11/16 02:35:46;;;;;;;88.47;20.35;;;3.60;99.90;;;;;;5075634;28;20048;-64
2021/11/16 02:38:12;;;;;;;66.35;18.75;;;3.70;99.90;;;;;;5067991;28;20104;-64
2021/11/16 02:40:38;;;;;;;44.05;17.45;;;3.70;99.90;;;;;;5075417;28;20029;-64
2021/11/16 02:43:05;;;;;;;93.78;19.17;;;3.80;99.90;;;;;;5067415;28;20044;-64
2021/11/16 02:45:31;;;;;;;95.38;18.60;;;3.80;99.90;;;;;;5066501;28;20033;-67
2021/11/16 02:47:56;;;;;;;237.15;114.05;;;3.70;99.90;;;;;;5068519;28;20040;-66
2021/11/16 02:50:23;;;;;;;111.05;35.22;;;3.80;99.90;;;;;;5087589;28;20092;-66
2021/11/16 02:52:50;;;;;;;136.13;23.70;;;3.80;99.90;;;;;;5087893;28;20498;-64
2021/11/16 02:55:16;;;;;;;102.40;21.05;;;3.70;99.90;;;;;;5087582;28;20044;-64
2021/11/16 02:57:43;;;;;;;78.32;17.50;;;3.70;99.90;;;;;;5085791;28;20032;-64
2021/11/16 03:00:13;;;;;;;93.32;20.10;;;3.70;99.90;;;;;;5086005;28;20071;-64
2021/11/16 03:02:47;;;;;;;53.80;17.35;;;3.70;99.90;;;;;;5079600;28;20048;-65
2021/11/16 03:05:13;;;;;;;67.78;18.50;;;3.60;99.90;;;;;;5066625;28;20040;-64
2021/11/16 03:07:46;;;;;;;45.50;17.25;;;3.70;99.90;;;;;;5067113;28;20416;-64
2021/11/16 03:10:12;;;;;;;95.57;18.67;;;3.60;99.90;;;;;;5075703;28;20043;-64
2021/11/16 03:12:38;;;;;;;58.75;16.15;;;3.60;99.90;;;;;;5067913;28;20032;-64
2021/11/16 03:15:05;;;;;;;91.45;16.98;;;3.60;99.90;;;;;;5067378;28;20123;-64
2021/11/16 03:17:30;;;;;;;201.10;21.73;;;3.50;99.90;;;;;;5066706;28;20040;-64
2021/11/16 03:19:56;;;;;;;139.15;21.00;;;3.50;99.90;;;;;;5067781;28;20097;-64
2021/11/16 03:22:27;;;;;;;135.10;20.17;;;3.50;99.90;;;;;;5067905;28;20040;-63
2021/11/16 03:24:58;;;;;;;160.85;21.08;;;3.50;99.90;;;;;;5067563;28;20409;-64
2021/11/16 03:27:30;;;;;;;170.52;24.10;;;3.50;99.90;;;;;;5066761;28;20500;-64
2021/11/16 03:29:58;;;;;;;156.27;21.02;;;3.50;99.90;;;;;;5067270;28;20127;-64
2021/11/16 03:32:31;;;;;;;143.27;21.23;;;3.50;99.90;;;;;;5066110;28;20164;-64
2021/11/16 03:34:57;;;;;;;87.45;18.30;;;3.50;99.90;;;;;;5067007;28;20047;-64
2021/11/16 03:37:25;;;;;;;110.50;20.00;;;3.50;99.90;;;;;;5065566;28;20044;-64
2021/11/16 03:39:52;;;;;;;151.80;21.98;;;3.50;99.90;;;;;;5078345;28;20074;-67
2021/11/16 03:42:18;;;;;;;154.88;21.33;;;3.50;99.90;;;;;;5087080;28;20645;-64
2021/11/16 03:44:44;;;;;;;77.75;17.73;;;3.50;99.90;;;;;;5087551;28;20044;-64
2021/11/16 03:47:10;;;;;;;70.57;16.00;;;3.50;99.90;;;;;;5086411;28;20040;-64
2021/11/16 03:49:35;;;;;;;109.65;19.75;;;3.60;99.90;;;;;;5071338;28;20048;-64
2021/11/16 03:52:01;;;;;;;45.00;15.68;;;3.50;99.90;;;;;;5066121;28;20044;-64
2021/11/16 03:54:27;;;;;;;89.35;16.52;;;3.50;99.90;;;;;;5070902;28;20448;-63
2021/11/16 03:57:00;;;;;;;57.78;17.25;;;3.40;99.90;;;;;;5071022;28;20040;-64
2021/11/16 03:59:25;;;;;;;77.65;16.83;;;3.50;99.90;;;;;;5070564;28;20074;-64
2021/11/16 04:01:52;;;;;;;47.03;14.85;;;3.40;99.90;;;;;;5069986;28;20515;-65
2021/11/16 04:04:19;;;;;;;96.75;16.88;;;3.50;99.90;;;;;;5077172;28;20039;-63
2021/11/16 04:06:45;;;;;;;38.88;14.05;;;3.40;99.90;;;;;;5087926;28;20040;-64
2021/11/16 04:09:10;;;;;;;44.17;15.82;;;3.50;99.90;;;;;;5079280;28;20047;-64
2021/11/16 04:11:36;;;;;;;39.83;16.40;;;3.50;99.90;;;;;;5088193;28;20079;-64
2021/11/16 04:14:01;;;;;;;53.63;14.00;;;3.60;99.90;;;;;;5085856;28;20033;-63
2021/11/16 04:16:27;;;;;;;44.95;14.98;;;3.60;99.90;;;;;;5069878;28;20105;-64
2021/11/16 04:18:53;;;;;;;38.88;15.02;;;3.70;99.90;;;;;;5069819;28;20047;-64
2021/11/16 04:21:19;;;;;;;46.65;15.43;;;3.70;99.90;;;;;;5086092;28;20038;-63
2021/11/16 04:23:45;;;;;;;51.45;15.38;;;3.70;99.90;;;;;;5088837;28;20043;-63
2021/11/16 04:26:10;;;;;;;58.45;16.08;;;3.70;99.90;;;;;;5104360;28;20080;-64
2021/11/16 04:28:36;;;;;;;45.28;14.70;;;3.70;99.90;;;;;;5110731;28;20191;-64
2021/11/16 04:31:02;;;;;;;33.80;13.63;;;3.70;99.90;;;;;;5110484;28;20028;-64
2021/11/16 04:33:28;;;;;;;43.50;15.80;;;3.70;99.90;;;;;;5088225;28;20060;-64
2021/11/16 04:35:55;;;;;;;42.47;15.95;;;3.70;99.90;;;;;;5090451;28;20615;-63
2021/11/16 04:38:20;;;;;;;60.63;16.27;;;3.70;99.90;;;;;;5083123;28;20032;-64
2021/11/16 04:40:52;;;;;;;35.25;13.25;;;3.70;99.90;;;;;;5082036;28;20176;-63
2021/11/16 04:43:21;;;;;;;40.88;15.05;;;3.60;99.90;;;;;;5090670;28;20040;-64
2021/11/16 04:45:51;;;;;;;58.10;14.90;;;3.60;99.90;;;;;;5089368;28;20076;-64
2021/11/16 04:48:41;;;;;;;39.00;14.15;;;3.50;99.90;;;;;;5085635;28;20044;-64
2021/11/16 04:59:29;;;;;;;35.67;13.13;;;3.60;99.90;;;;;;5070146;28;20123;-64
2021/11/16 05:04:16;;;;;;;28.75;12.60;;;3.60;99.90;;;;;;5069907;28;20028;-64
2021/11/16 05:06:43;;;;;;;29.60;12.93;;;3.60;99.90;;;;;;5068692;28;20074;-64
2021/11/16 05:09:10;;;;;;;33.80;12.68;;;3.70;99.90;;;;;;5075242;28;20047;-64
2021/11/16 05:11:35;;;;;;;32.22;13.00;;;3.70;99.90;;;;;;5072651;28;20044;-63
2021/11/16 05:14:01;;;;;;;31.10;13.60;;;3.70;99.90;;;;;;5070076;28;20119;-64
2021/11/16 05:16:27;;;;;;;29.00;11.82;;;3.80;99.90;;;;;;5071003;28;20055;-64
2021/11/16 05:18:53;;;;;;;44.03;14.55;;;3.70;99.90;;;;;;5069860;28;20059;-63
2021/11/16 05:21:20;;;;;;;44.00;14.00;;;3.60;99.90;;;;;;5069058;28;20048;-62
2021/11/16 05:23:53;;;;;;;37.35;12.85;;;3.60;99.90;;;;;;5069402;28;20051;-63
2021/11/16 05:26:19;;;;;;;30.92;12.20;;;3.50;99.90;;;;;;5068727;28;20052;-64
2021/11/16 05:28:46;;;;;;;34.33;12.98;;;3.50;99.90;;;;;;5070895;28;20044;-64
2021/11/16 05:31:13;;;;;;;29.70;13.35;;;3.60;99.90;;;;;;5074459;28;20033;-63
2021/11/16 05:33:39;;;;;;;33.15;12.45;;;3.60;99.90;;;;;;5068546;28;20075;-64
2021/11/16 05:36:05;;;;;;;29.83;12.05;;;3.60;99.90;;;;;;5068591;28;20456;-64
2021/11/16 05:38:34;;;;;;;31.60;12.05;;;3.60;99.90;;;;;;5068550;28;20099;-64
2021/11/16 05:41:00;;;;;;;24.48;11.00;;;3.60;99.90;;;;;;5081317;28;20063;-64
2021/11/16 05:43:27;;;;;;;25.08;11.65;;;3.70;99.90;;;;;;5093107;28;20038;-64
2021/11/16 05:45:53;;;;;;;24.35;10.68;;;3.70;99.90;;;;;;5090844;28;20054;-64
2021/11/16 05:48:21;;;;;;;24.83;10.32;;;3.80;99.90;;;;;;5079116;28;20665;-64
2021/11/16 05:50:51;;;;;;;22.25;9.65;;;3.80;99.90;;;;;;5087249;28;20044;-64
2021/11/16 05:53:17;;;;;;;23.45;9.95;;;3.70;99.90;;;;;;5088797;28;20132;-64
2021/11/16 05:55:44;;;;;;;24.02;10.55;;;3.70;99.90;;;;;;5089183;28;20040;-67
2021/11/16 05:58:13;;;;;;;26.55;13.30;;;3.70;99.90;;;;;;5088759;28;20047;-63
2021/11/16 06:00:39;;;;;;;38.83;18.98;;;3.70;99.90;;;;;;5077260;28;20121;-63
2021/11/16 06:03:04;;;;;;;56.65;27.17;;;3.70;99.90;;;;;;5092656;28;20494;-64
2021/11/16 06:05:30;;;;;;;36.28;17.25;;;3.60;99.90;;;;;;5080476;28;20036;-65
2021/11/16 06:07:56;;;;;;;40.30;17.88;;;3.70;99.90;;;;;;5099492;28;20043;-68
2021/11/16 06:10:21;;;;;;;33.42;14.68;;;3.70;99.90;;;;;;5101871;28;20071;-65
2021/11/16 06:12:47;;;;;;;26.60;11.80;;;3.60;99.90;;;;;;5088797;28;20050;-64
2021/11/16 06:15:12;;;;;;;22.55;10.55;;;3.70;99.90;;;;;;5079517;28;20143;-65
2021/11/16 06:17:44;;;;;;;21.00;9.63;;;3.70;99.90;;;;;;5068081;28;20068;-64
2021/11/16 06:20:11;;;;;;;22.88;9.85;;;3.70;99.90;;;;;;5068187;28;20048;-64
2021/11/16 06:22:36;;;;;;;21.52;9.48;;;3.60;99.90;;;;;;5068425;28;20076;-64
2021/11/16 06:25:02;;;;;;;20.90;9.65;;;3.60;99.90;;;;;;5068170;28;20091;-64
2021/11/16 06:27:28;;;;;;;23.60;10.63;;;3.50;99.90;;;;;;5067707;28;20102;-64
2021/11/16 06:29:54;;;;;;;21.35;10.00;;;3.50;99.90;;;;;;5068782;28;20036;-64
2021/11/16 06:32:19;;;;;;;21.52;8.63;;;3.50;99.90;;;;;;5074458;28;20043;-65
2021/11/16 06:34:45;;;;;;;20.38;9.25;;;3.60;99.90;;;;;;5079333;28;20039;-64
2021/11/16 06:37:10;;;;;;;21.05;8.95;;;3.60;99.90;;;;;;5082457;28;20493;-63
2021/11/16 06:39:36;;;;;;;23.73;9.70;;;3.60;99.90;;;;;;5068423;28;20037;-63
2021/11/16 06:42:02;;;;;;;21.10;9.02;;;3.60;99.90;;;;;;5087429;28;20589;-64
2021/11/16 06:44:29;;;;;;;23.92;10.73;;;3.60;99.90;;;;;;5088275;28;20094;-65
2021/11/16 06:46:55;;;;;;;19.77;8.95;;;3.70;99.90;;;;;;5085893;28;20052;-65
2021/11/16 06:49:21;;;;;;;16.60;8.43;;;3.70;99.90;;;;;;5073812;28;20358;-65
2021/11/16 06:51:49;;;;;;;16.33;7.97;;;3.70;99.90;;;;;;5067370;28;20044;-65
2021/11/16 06:54:21;;;;;;;14.98;7.60;;;3.60;99.90;;;;;;5066321;28;20052;-65
2021/11/16 06:56:49;;;;;;;18.25;7.75;;;3.50;99.90;;;;;;5074654;28;20047;-66
2021/11/16 06:59:17;;;;;;;15.07;7.18;;;3.60;99.90;;;;;;5074323;28;20403;-65
2021/11/16 07:01:43;;;;;;;12.45;6.13;;;3.60;99.90;;;;;;5078012;28;20043;-66
2021/11/16 07:04:10;;;;;;;11.93;6.28;;;3.60;99.90;;;;;;5075037;28;20040;-66
2021/11/16 07:06:42;;;;;;;12.55;6.60;;;3.60;99.90;;;;;;5074842;28;20028;-65
2021/11/16 07:09:10;;;;;;;15.43;6.28;;;3.60;99.90;;;;;;5075346;28;20032;-66
2021/11/16 07:11:43;;;;;;;11.77;6.28;;;3.60;99.90;;;;;;5079001;28;20082;-66
2021/11/16 07:14:11;;;;;;;13.05;6.20;;;3.60;99.90;;;;;;5077716;28;20500;-65
2021/11/16 07:16:36;;;;;;;12.63;5.93;;;3.60;99.90;;;;;;5077493;28;20414;-66
2021/11/16 07:19:04;;;;;;;16.33;6.93;;;3.60;99.90;;;;;;5078252;28;20028;-66
2021/11/16 07:21:48;;;;;;;15.32;7.35;;;3.60;99.90;;;;;;5078388;28;20036;-65
2021/11/16 07:24:17;;;;;;;13.55;6.53;;;3.70;99.90;;;;;;5077766;28;20470;-65
2021/11/16 07:26:44;;;;;;;14.32;6.53;;;3.70;99.90;;;;;;5080360;28;20051;-65
2021/11/16 07:29:17;;;;;;;12.60;5.78;;;3.70;99.90;;;;;;5079074;28;20056;-65
2021/11/16 07:31:43;;;;;;;12.60;5.80;;;3.60;99.90;;;;;;5079419;28;20040;-65
2021/11/16 07:34:17;;;;;;;12.40;6.07;;;3.60;99.90;;;;;;5077172;28;20052;-66
2021/11/16 07:37:02;;;;;;;12.45;6.25;;;3.50;99.90;;;;;;5077018;28;20712;-66
2021/11/16 07:39:49;;;;;;;10.13;6.00;;;3.50;99.90;;;;;;5081236;28;20032;-63
2021/11/16 07:42:23;;;;;;;13.02;6.05;;;3.60;99.90;;;;;;5071055;28;20413;-64
2021/11/16 07:45:09;;;;;;;13.38;6.55;;;3.70;99.90;;;;;;5082487;28;20040;-63
2021/11/16 07:47:43;;;;;;;12.18;6.30;;;3.70;99.90;;;;;;5069122;28;20516;-63
2021/11/16 07:50:13;;;;;;;13.55;6.50;;;3.70;99.90;;;;;;5082926;28;20692;-63
2021/11/16 07:52:45;;;;;;;11.15;5.88;;;3.70;99.90;;;;;;5080616;28;20051;-63
2021/11/16 07:55:22;;;;;;;14.93;6.20;;;3.60;99.90;;;;;;5088866;28;20036;-63
2021/11/16 07:57:49;;;;;;;14.07;6.55;;;3.60;99.90;;;;;;5091452;28;20044;-64
2021/11/16 08:00:27;;;;;;;17.70;6.35;;;3.70;99.90;;;;;;5090751;28;20043;-64
2021/11/16 08:03:01;;;;;;;13.55;6.22;;;3.70;99.90;;;;;;5082392;28;20040;-63
2021/11/16 08:05:40;;;;;;;10.57;5.30;;;3.70;99.90;;;;;;5070533;28;20043;-62
2021/11/16 08:11:23;;;;;;;11.45;5.30;;;3.70;99.90;;;;;;5086686;28;20040;-64
2021/11/16 08:13:49;;;;;;;10.75;5.80;;;3.70;99.90;;;;;;5070943;28;20516;-64
2021/11/16 08:16:24;;;;;;;9.48;4.95;;;3.70;99.90;;;;;;5068073;28;20040;-64
2021/11/16 08:18:59;;;;;;;15.70;5.85;;;3.80;99.90;;;;;;5071161;28;20041;-71
2021/11/16 08:21:26;;;;;;;10.65;5.65;;;3.70;99.90;;;;;;5070679;28;20833;-64
2021/11/16 08:23:55;;;;;;;16.05;6.32;;;3.70;99.90;;;;;;5070721;28;20041;-63
2021/11/16 08:26:24;;;;;;;12.23;5.43;;;3.60;99.90;;;;;;5070195;28;20055;-63
2021/11/16 08:28:51;;;;;;;10.65;4.85;;;3.60;99.90;;;;;;5070263;28;20075;-64
2021/11/16 08:31:17;;;;;;;19.17;6.05;;;3.60;99.90;;;;;;5077168;28;20028;-64
2021/11/16 08:33:44;;;;;;;15.65;6.40;;;3.70;99.90;;;;;;5072546;28;20090;-64
2021/11/16 08:36:11;;;;;;;20.67;9.82;;;3.70;99.90;;;;;;5070173;28;20522;-64
2021/11/16 08:38:39;;;;;;;18.40;7.85;;;3.70;99.90;;;;;;5078409;28;20039;-68
2021/11/16 08:41:05;;;;;;;22.20;10.57;;;3.70;99.90;;;;;;5083770;28;20139;-66
2021/11/16 08:43:38;;;;;;;21.60;6.68;;;3.70;99.90;;;;;;5090426;28;20040;-66
2021/11/16 08:46:06;;;;;;;13.88;5.38;;;3.70;99.90;;;;;;5089186;28;20507;-65
2021/11/16 08:48:35;;;;;;;10.88;5.22;;;3.80;99.90;;;;;;5084052;28;20094;-66
2021/11/16 08:51:08;;;;;;;13.48;5.85;;;3.80;99.90;;;;;;5087019;28;20118;-66
2021/11/16 08:53:39;;;;;;;12.68;5.85;;;3.90;99.90;;;;;;5087718;28;20670;-65
2021/11/16 08:56:13;;;;;;;14.27;7.82;;;3.90;99.90;;;;;;5101353;28;20451;-66
2021/11/16 08:58:38;;;;;;;55.35;28.02;;;3.70;99.90;;;;;;5110634;28;20048;-66
2021/11/16 09:01:07;;;;;;;25.50;12.25;;;3.70;99.90;;;;;;5109678;28;20032;-66
2021/11/16 09:03:36;;;;;;;145.95;64.95;;;3.80;99.90;;;;;;5096340;28;20043;-66
2021/11/16 09:06:13;;;;;;;44.83;20.50;;;3.90;99.90;;;;;;5089230;28;20093;-66
2021/11/16 09:08:39;;;;;;;22.15;11.50;;;3.90;99.90;;;;;;5081050;28;20043;-66
2021/11/16 09:11:16;;;;;;;21.30;10.20;;;4.00;99.90;;;;;;5070433;28;20044;-64
2021/11/16 09:13:43;;;;;;;18.55;9.13;;;4.00;99.90;;;;;;5070503;28;20048;-63
2021/11/16 09:16:14;;;;;;;16.95;8.23;;;4.00;99.90;;;;;;5068768;28;20037;-64
2021/11/16 09:18:42;;;;;;;15.50;8.05;;;4.00;99.90;;;;;;5070234;28;20060;-63
2021/11/16 09:21:12;;;;;;;15.98;7.72;;;4.00;99.90;;;;;;5070002;28;20501;-63
2021/11/16 09:23:44;;;;;;;18.35;9.30;;;3.80;99.90;;;;;;5070142;28;20040;-63
2021/11/16 09:26:33;;;;;;;21.13;8.95;;;3.90;99.90;;;;;;5069136;28;20052;-63
2021/11/16 09:29:02;;;;;;;17.15;8.65;;;3.80;99.90;;;;;;5075503;28;20032;-63
2021/11/16 09:31:37;;;;;;;17.02;8.85;;;3.70;99.90;;;;;;5082751;28;20851;-63
2021/11/16 09:34:21;;;;;;;20.85;9.38;;;3.50;99.90;;;;;;5088269;28;20040;-63
2021/11/16 09:36:58;;;;;;;19.98;8.38;;;3.60;99.90;;;;;;5086271;28;20079;-63
2021/11/16 09:39:52;;;;;;;16.67;8.13;;;3.70;99.90;;;;;;5076384;28;20393;-64
2021/11/16 09:42:22;;;;;;;19.90;8.95;;;3.60;99.90;;;;;;5067253;28;20427;-64
2021/11/16 09:44:52;;;;;;;17.45;8.32;;;3.60;99.90;;;;;;5068994;28;20032;-64
2021/11/16 09:47:18;;;;;;;17.42;7.97;;;3.60;99.90;;;;;;5067981;28;20054;-65
2021/11/16 09:49:51;;;;;;;14.45;7.35;;;3.70;99.90;;;;;;5085933;28;20187;-64
2021/11/16 09:52:29;;;;;;;17.23;7.95;;;3.70;99.90;;;;;;5089329;28;20040;-64
2021/11/16 09:55:08;;;;;;;17.85;8.43;;;3.70;99.90;;;;;;5089350;28;20127;-63
2021/11/16 09:57:47;;;;;;;45.15;23.88;;;3.70;99.90;;;;;;5090416;28;20075;-64
2021/11/16 10:00:20;;;;;;;47.75;22.55;;;3.70;99.90;;;;;;5085032;28;20086;-63
2021/11/16 10:03:08;;;;;;;23.98;11.60;;;3.80;99.90;;;;;;5088141;28;20040;-63
2021/11/16 10:05:40;;;;;;;19.00;8.32;;;3.90;99.90;;;;;;5077342;28;20098;-64
2021/11/16 10:08:07;;;;;;;22.90;11.00;;;3.90;99.90;;;;;;5091348;28;20047;-64
2021/11/16 10:10:37;;;;;;;15.82;8.13;;;3.90;99.90;;;;;;5080563;28;20040;-63
2021/11/16 10:13:07;;;;;;;14.00;7.25;;;3.90;99.90;;;;;;5072550;28;20040;-63
2021/11/16 10:15:35;;;;;;;18.23;9.57;;;3.80;99.90;;;;;;5075388;28;20290;-64
2021/11/16 10:18:02;;;;;;;14.27;7.22;;;3.90;99.90;;;;;;5075691;28;20493;-63
2021/11/16 10:20:31;;;;;;;15.38;6.63;;;3.90;99.90;;;;;;5077297;28;20097;-63
2021/11/16 10:23:00;;;;;;;12.65;6.53;;;3.80;99.90;;;;;;5077035;28;20045;-64
2021/11/16 10:25:29;;;;;;;12.40;6.05;;;3.90;99.90;;;;;;5076612;28;20040;-63
2021/11/16 10:27:58;;;;;;;11.95;6.03;;;3.90;99.90;;;;;;5075637;28;20043;-63
2021/11/16 10:30:29;;;;;;;11.45;6.15;;;4.00;99.90;;;;;;5075078;28;20060;-63
2021/11/16 10:33:22;;;;;;;12.52;6.10;;;3.90;99.90;;;;;;5075346;28;20031;-63
2021/11/16 10:36:06;;;;;;;11.32;6.15;;;4.00;99.90;;;;;;5077595;28;20047;-63
2021/11/16 10:38:35;;;;;;;15.15;5.75;;;4.00;99.90;;;;;;5076901;28;20548;-63
2021/11/16 10:41:08;;;;;;;11.65;5.60;;;3.90;99.90;;;;;;5076648;28;20036;-63
2021/11/16 10:43:59;;;;;;;12.10;6.00;;;4.00;99.90;;;;;;5071588;28;20492;-63
2021/11/16 10:46:32;;;;;;;10.93;6.20;;;4.00;99.90;;;;;;5071457;28;20051;-64
2021/11/16 10:49:01;;;;;;;11.45;5.97;;;4.00;99.90;;;;;;5068474;28;20052;-64
2021/11/16 10:51:33;;;;;;;23.52;12.90;;;4.10;99.90;;;;;;5067687;28;20070;-64
2021/11/16 10:54:00;;;;;;;21.23;11.55;;;4.10;99.90;;;;;;5068110;28;20047;-64
2021/11/16 10:56:29;;;;;;;12.38;7.38;;;4.10;99.90;;;;;;5068279;28;20047;-64
2021/11/16 10:59:06;;;;;;;11.93;6.20;;;4.00;99.90;;;;;;5067643;28;20104;-64
2021/11/16 11:01:41;;;;;;;9.45;5.43;;;4.00;99.90;;;;;;5066940;28;20076;-67
2021/11/16 11:04:12;;;;;;;11.13;6.07;;;3.90;99.90;;;;;;5069618;28;20114;-64
2021/11/16 11:06:39;;;;;;;32.03;13.90;;;3.90;99.90;;;;;;5065472;28;20491;-64
2021/11/16 11:09:06;;;;;;;15.02;6.90;;;4.00;99.90;;;;;;5074929;28;20482;-64
2021/11/16 11:11:33;;;;;;;11.50;5.50;;;4.00;99.90;;;;;;5082381;28;20040;-64
2021/11/16 11:14:17;;;;;;;12.13;6.03;;;4.00;99.90;;;;;;5092625;28;20040;-65
2021/11/16 11:16:49;;;;;;;12.48;5.70;;;4.10;99.90;;;;;;5083717;28;20036;-64
2021/11/16 11:19:21;;;;;;;10.32;5.53;;;4.10;99.90;;;;;;5087135;28;20084;-64
2021/11/16 11:21:57;;;;;;;10.13;5.40;;;4.00;99.90;;;;;;5084580;28;20032;-64
2021/11/16 11:24:37;;;;;;;8.95;5.38;;;4.00;99.90;;;;;;5077538;28;20044;-64
2021/11/16 11:29:57;;;;;;;10.20;5.40;;;4.10;99.90;;;;;;5072547;28;20051;-64
2021/11/16 11:32:35;;;;;;;12.30;5.32;;;4.10;99.90;;;;;;5073364;28;20048;-64
2021/11/16 11:35:13;;;;;;;11.75;5.35;;;4.10;99.90;;;;;;5073014;28;20733;-64
2021/11/16 11:37:48;;;;;;;8.18;4.70;;;4.10;99.90;;;;;;5074145;28;20040;-64
2021/11/16 11:40:18;;;;;;;11.82;5.28;;;4.10;99.90;;;;;;5073293;28;20564;-64
2021/11/16 11:42:49;;;;;;;9.98;5.07;;;4.20;99.90;;;;;;5074340;28;20044;-64
2021/11/16 11:45:22;;;;;;;10.00;4.68;;;4.30;99.90;;;;;;5075112;28;20492;-65
2021/11/16 11:47:58;;;;;;;7.65;4.15;;;4.40;99.90;;;;;;5075085;28;20040;-64
2021/11/16 11:50:26;;;;;;;;;;;4.40;99.90;;;;;;5076577;28;20036;-64
2021/11/16 11:52:52;;;;;;;9.93;5.07;;;4.40;99.90;;;;;;5076119;28;19934;-64
2021/11/16 11:55:19;;;;;;;7.55;4.07;;;4.40;99.90;;;;;;5075223;28;20115;-64
2021/11/16 11:57:45;;;;;;;7.70;4.00;;;4.40;99.90;;;;;;5075407;28;20040;-65
2021/11/16 12:00:12;;;;;;;9.07;4.68;;;4.50;99.90;;;;;;5074735;28;20115;-64
2021/11/16 12:02:39;;;;;;;9.13;5.32;;;4.50;99.90;;;;;;5074249;28;20411;-65
2021/11/16 12:05:06;;;;;;;10.23;5.88;;;4.50;99.90;;;;;;5075335;28;20032;-64
2021/11/16 12:07:32;;;;;;;9.93;5.13;;;4.50;99.90;;;;;;5074947;28;20443;-64
2021/11/16 12:09:58;;;;;;;12.77;5.30;;;4.60;99.90;;;;;;5072249;28;20101;-64
2021/11/16 12:12:25;;;;;;;17.05;6.57;;;4.60;99.90;;;;;;5075494;28;20075;-63
2021/11/16 12:15:01;;;;;;;38.78;19.77;;;4.60;99.90;;;;;;5079033;28;20450;-62
2021/11/16 12:17:30;;;;;;;24.33;13.73;;;4.50;99.90;;;;;;5077878;28;20075;-62
2021/11/16 12:19:56;;;;;;;12.13;5.68;;;4.60;99.90;;;;;;5079680;28;20036;-65
2021/11/16 12:22:30;;;;;;;15.48;8.50;;;4.60;99.90;;;;;;5079098;28;20049;-64
2021/11/16 12:25:16;;;;;;;8.10;4.78;;;4.60;99.90;;;;;;5068984;28;20055;-65
2021/11/16 12:27:42;;;;;;;7.00;4.20;;;4.60;99.90;;;;;;5082916;28;20411;-63
2021/11/16 12:30:09;;;;;;;7.10;3.97;;;4.50;99.90;;;;;;5080488;28;20433;-64
2021/11/16 12:32:35;;;;;;;8.65;4.35;;;4.50;99.90;;;;;;5077798;28;20044;-62
2021/11/16 12:35:15;;;;;;;8.18;4.35;;;4.50;99.90;;;;;;5070000;28;20044;-65
2021/11/16 12:37:51;;;;;;;7.13;3.78;;;4.50;99.90;;;;;;5069515;28;20055;-63
2021/11/16 12:40:34;;;;;;;5.85;3.53;;;4.50;99.90;;;;;;5084792;28;20036;-63
2021/11/16 12:43:15;;;;;;;8.00;4.35;;;4.60;99.90;;;;;;5095653;28;20166;-64
2021/11/16 12:46:00;;;;;;;9.50;4.88;;;4.60;99.90;;;;;;5106081;28;20286;-64
2021/11/16 12:48:47;;;;;;;8.05;4.30;;;4.60;99.90;;;;;;5082523;28;20400;-63
2021/11/16 12:51:15;;;;;;;7.82;4.55;;;4.60;99.90;;;;;;5069504;28;20135;-63
2021/11/16 12:53:52;;;;;;;7.68;4.63;;;4.70;99.90;;;;;;5070241;28;20442;-64
2021/11/16 12:56:42;;;;;;;6.38;3.83;;;4.60;99.90;;;;;;5076100;28;20151;-65
2021/11/16 12:59:09;;;;;;;7.05;4.15;;;4.60;99.90;;;;;;5093008;28;20089;-65
2021/11/16 13:01:42;;;;;;;10.60;4.65;;;4.60;99.90;;;;;;5099278;28;20457;-65
2021/11/16 13:04:10;;;;;;;6.97;4.07;;;4.70;99.90;;;;;;5090481;28;20067;-65
2021/11/16 13:06:39;;;;;;;47.83;25.58;;;4.70;99.90;;;;;;5089404;28;20105;-65
2021/11/16 13:09:07;;;;;;;36.03;18.83;;;4.70;99.90;;;;;;5077067;28;20032;-66